Aérodrome :
LOGIN :

S'inscrire | Disclaimer

   EN    FR    IT 

 










Légende :    VFR   VFR Marginal   IFR   IFR Intensif   IFR Très Intensif
Visi : 
Plafond : 
>= 8 km
>= 3000ft
5 à 8 km
1000 à 3000 ft
1500m à 5 km
500 à 1000 ft
800 à 1500m
200 à 500 ft
< 800m
< 200 ft
Symboles :   Orages  Brouillard  Fortes neiges  Fortes précipitations  Vent > 20 kt
SIGMETs :   Divers  Orages  Givrage  Turbulence  Onde Orograph.  Cendres Volcan.






- Altitude de l'aérodrome : 144 ft
- Code IATA : PGF


LFMP - Perpignan

DERNIER METAR :
  • 131000Z AUTO 29012KT 9999 FEW041 SCT180 12/06 Q1007 NOSIG

METARs EXPIRÉS :
  • 130900Z AUTO 29010KT 9999 FEW058 BKN210 11/06 Q1007 NOSIG
  • 130830Z AUTO 30010KT 9999 FEW058 SCT200 BKN210 11/06 Q1007 NOSIG
  • 130800Z AUTO 29006KT 260V320 9999 BKN064 10/06 Q1006 NOSIG
  • 130730Z AUTO 25006KT 9999 SCT062 SCT072 10/07 Q1006 BECMG 32010KT

TAF TAF LFMP
Valide du 13 à 09h jusqu'au 14 à 09h UTC


130800Z 1309/1409 31010KT 9999 SCT060
TEMPO 1312/1318 31015G30KT BKN030
TEMPO 1320/1406 VRB05KT
BECMG 1406/1409 BKN030
ATIS : +33 4 68 63 75 12



MET'MAP, la Météo Aéronautique d'un coup d'oeil ! - Copyright ORBIFLY Décembre 2007 - Disclaimer

ORBIFLY MET'MAP TEAM :

Programmation & Développement : Alexandra Zaïnal
Conception & Développement : Baudouin d'Aumeries
Co-Programmation & Développement : Marc-Olivier Méhu
Soutien technique & logistique : Manuel Goepfert

Contact : metmap@orbifly.com




SOURCES & CREDITS :

   NOAA